Time;durP1;ratioP1;P1;durP2;ratioP2;P2;SDS_P1;SDS_P2;PMS_P1;PMS_P2;Temp;Humidity;BMP_temperature;BMP_pressure;BME280_temperature;BME280_humidity;BME280_pressure;Samples;Min_cycle;Max_cycle;Signal;HPM_P1;HPM_P2
2021/03/29 00:02:26;;;;;;;4.55;2.75;;;7.60;73.00;;;;;;6223965;28;20050;-79
2021/03/29 00:05:30;;;;;;;6.78;4.15;;;7.60;72.50;;;;;;6223114;28;20050;-78
2021/03/29 00:08:33;;;;;;;11.27;5.10;;;7.60;72.30;;;;;;6237597;28;20116;-77
2021/03/29 00:11:36;;;;;;;4.47;2.50;;;7.60;72.50;;;;;;6247246;28;20077;-78
2021/03/29 00:14:38;;;;;;;2.88;2.35;;;7.50;72.80;;;;;;6247424;28;20140;-77
2021/03/29 00:17:41;;;;;;;3.60;2.63;;;7.50;73.10;;;;;;6246470;28;20115;-78
2021/03/29 00:20:47;;;;;;;7.28;4.30;;;7.30;73.30;;;;;;6246683;28;20488;-78
2021/03/29 00:23:49;;;;;;;6.53;2.85;;;7.30;73.50;;;;;;6245449;28;20109;-78
2021/03/29 00:26:51;;;;;;;9.43;2.50;;;7.20;73.60;;;;;;6247824;28;20081;-78
2021/03/29 00:29:53;;;;;;;6.38;3.08;;;7.10;73.70;;;;;;6270476;28;20135;-78
2021/03/29 00:32:56;;;;;;;5.97;2.75;;;7.00;73.80;;;;;;6255712;28;20129;-78
2021/03/29 00:35:59;;;;;;;4.07;3.00;;;7.00;73.80;;;;;;6246611;28;20052;-78
2021/03/29 00:39:01;;;;;;;4.75;3.08;;;6.90;73.90;;;;;;6246630;28;20109;-78
2021/03/29 00:42:05;;;;;;;7.07;5.03;;;6.80;74.20;;;;;;6247085;28;20542;-78
2021/03/29 00:45:11;;;;;;;5.85;2.70;;;6.70;74.60;;;;;;6246759;28;20175;-77
2021/03/29 00:48:14;;;;;;;5.15;2.80;;;6.60;74.80;;;;;;6246399;28;20451;-78
2021/03/29 00:51:17;;;;;;;5.00;2.97;;;6.60;75.00;;;;;;6246983;28;20576;-78
2021/03/29 00:54:18;;;;;;;3.92;2.45;;;6.50;75.20;;;;;;6246933;28;20450;-78
2021/03/29 00:57:20;;;;;;;10.07;3.15;;;6.40;75.40;;;;;;6246719;28;20052;-78
2021/03/29 01:00:29;;;;;;;5.72;4.07;;;6.40;75.60;;;;;;6246495;28;20038;-78
2021/03/29 01:03:32;;;;;;;5.97;3.33;;;6.30;75.90;;;;;;6246430;28;20453;-78
2021/03/29 01:06:37;;;;;;;9.02;4.03;;;6.30;75.90;;;;;;6247189;28;20088;-78
2021/03/29 01:09:39;;;;;;;7.15;3.60;;;6.20;76.10;;;;;;6245977;28;20052;-78
2021/03/29 01:12:42;;;;;;;4.72;3.22;;;6.20;76.30;;;;;;6246710;28;20140;-78
2021/03/29 01:15:46;;;;;;;5.35;2.88;;;6.10;76.70;;;;;;6246680;28;20053;-78
2021/03/29 01:18:50;;;;;;;7.70;3.17;;;6.00;76.90;;;;;;6247710;28;20079;-78
2021/03/29 01:22:01;;;;;;;6.38;3.50;;;6.00;77.00;;;;;;6246618;28;20140;-78
2021/03/29 01:25:10;;;;;;;4.53;3.20;;;5.90;77.40;;;;;;6246913;28;20128;-78
2021/03/29 01:28:17;;;;;;;7.57;2.85;;;5.80;77.60;;;;;;6246352;28;20466;-78
2021/03/29 01:31:19;;;;;;;3.50;2.70;;;5.80;78.00;;;;;;6251019;28;20071;-77
2021/03/29 01:34:20;;;;;;;4.65;2.88;;;5.70;78.20;;;;;;6252501;28;20139;-77
2021/03/29 01:37:22;;;;;;;11.15;3.33;;;5.60;78.70;;;;;;6251518;28;20128;-78
2021/03/29 01:40:24;;;;;;;4.78;2.63;;;5.60;79.20;;;;;;6250957;28;20459;-78
2021/03/29 01:43:27;;;;;;;5.18;2.45;;;5.50;79.60;;;;;;6250701;28;20054;-78
2021/03/29 01:46:29;;;;;;;3.22;2.92;;;5.40;79.90;;;;;;6251410;28;20462;-78
2021/03/29 01:49:31;;;;;;;3.20;2.63;;;5.40;80.00;;;;;;6253049;28;20045;-78
2021/03/29 01:52:33;;;;;;;7.53;3.05;;;5.30;80.20;;;;;;6253643;28;20061;-78
2021/03/29 01:55:35;;;;;;;8.02;3.10;;;5.20;80.60;;;;;;6253680;28;20064;-78
2021/03/29 01:58:37;;;;;;;5.25;3.65;;;5.20;81.00;;;;;;6254338;28;20470;-78
2021/03/29 02:01:39;;;;;;;4.28;2.90;;;5.20;81.00;;;;;;6254088;28;20049;-77
2021/03/29 02:04:40;;;;;;;6.80;3.78;;;5.20;81.10;;;;;;6250662;28;20133;-78
2021/03/29 02:07:43;;;;;;;5.00;3.30;;;5.20;81.30;;;;;;6250049;28;20069;-78
2021/03/29 02:10:46;;;;;;;6.30;3.30;;;5.20;81.20;;;;;;6250421;28;20184;-77
2021/03/29 02:13:51;;;;;;;3.97;3.25;;;5.10;81.40;;;;;;6250224;28;20596;-79
2021/03/29 02:16:54;;;;;;;5.15;3.42;;;5.10;81.50;;;;;;6249900;28;20094;-78
2021/03/29 02:19:57;;;;;;;4.80;3.25;;;5.00;81.60;;;;;;6249373;28;20053;-78
2021/03/29 02:23:01;;;;;;;4.80;4.05;;;5.00;81.90;;;;;;6250536;28;20057;-78
2021/03/29 02:26:04;;;;;;;8.25;3.60;;;5.00;82.10;;;;;;6249671;28;20128;-78
2021/03/29 02:29:07;;;;;;;5.85;3.83;;;5.00;82.00;;;;;;6248811;28;20150;-78
2021/03/29 02:32:09;;;;;;;11.63;4.65;;;4.90;82.40;;;;;;6249088;28;20053;-78
2021/03/29 02:35:12;;;;;;;6.43;3.70;;;4.90;82.50;;;;;;6249206;28;20077;-76
2021/03/29 02:38:16;;;;;;;5.95;3.08;;;4.90;82.60;;;;;;6249797;28;20085;-77
2021/03/29 02:41:20;;;;;;;4.50;3.33;;;4.80;82.80;;;;;;6249739;28;20072;-78
2021/03/29 02:44:23;;;;;;;4.70;3.03;;;4.80;83.20;;;;;;6249087;28;20137;-77
2021/03/29 02:47:24;;;;;;;5.25;3.38;;;4.80;83.30;;;;;;6249028;28;20056;-78
2021/03/29 02:50:27;;;;;;;9.90;4.25;;;4.80;83.40;;;;;;6249120;28;20136;-77
2021/03/29 02:53:32;;;;;;;8.40;4.35;;;4.80;83.40;;;;;;6248470;28;20069;-77
2021/03/29 02:56:38;;;;;;;10.05;4.45;;;4.70;83.50;;;;;;6248513;28;20049;-78
2021/03/29 02:59:41;;;;;;;5.53;4.18;;;4.70;84.40;;;;;;6249862;28;20124;-78
2021/03/29 03:02:44;;;;;;;9.07;4.13;;;4.70;85.60;;;;;;6248694;28;20554;-77
2021/03/29 03:05:46;;;;;;;9.45;5.07;;;4.90;87.00;;;;;;6248165;28;20550;-77
2021/03/29 03:08:48;;;;;;;12.32;5.07;;;5.10;88.90;;;;;;6247761;28;20053;-77
2021/03/29 03:11:50;;;;;;;12.93;4.40;;;5.60;89.10;;;;;;6248550;28;20080;-77
2021/03/29 03:14:53;;;;;;;7.53;3.28;;;5.80;86.70;;;;;;6249390;28;20157;-76
2021/03/29 03:17:57;;;;;;;9.95;4.68;;;5.80;85.30;;;;;;6248993;28;20175;-77
2021/03/29 03:20:59;;;;;;;5.95;3.65;;;5.70;85.60;;;;;;6248044;28;20049;-78
2021/03/29 03:24:01;;;;;;;8.43;4.57;;;5.50;84.10;;;;;;6247821;28;20068;-78
2021/03/29 03:27:06;;;;;;;5.53;3.13;;;5.40;85.70;;;;;;6247548;28;20507;-78
2021/03/29 03:30:10;;;;;;;5.28;2.83;;;5.40;84.50;;;;;;6249128;28;20566;-78
2021/03/29 03:33:12;;;;;;;10.82;3.78;;;5.60;86.30;;;;;;6252334;28;20041;-78
2021/03/29 03:36:16;;;;;;;8.43;3.33;;;5.60;85.20;;;;;;6257495;28;20065;-79
2021/03/29 03:39:18;;;;;;;5.00;4.38;;;5.80;84.30;;;;;;6254209;28;20064;-78
2021/03/29 03:42:20;;;;;;;5.15;3.22;;;6.00;82.80;;;;;;6253170;28;20069;-77
2021/03/29 03:45:27;;;;;;;7.32;3.85;;;5.90;81.50;;;;;;6247890;28;20084;-78
2021/03/29 03:48:30;;;;;;;10.07;4.85;;;5.60;81.20;;;;;;6248063;28;20072;-76
2021/03/29 03:51:32;;;;;;;7.22;4.60;;;5.30;81.70;;;;;;6248355;28;20482;-77
2021/03/29 03:54:34;;;;;;;5.72;3.28;;;5.00;82.30;;;;;;6248993;28;20049;-78
2021/03/29 03:57:37;;;;;;;5.35;3.22;;;4.80;83.00;;;;;;6265317;28;20556;-77
2021/03/29 04:00:40;;;;;;;3.10;2.80;;;4.60;84.30;;;;;;6276119;28;20096;-77
2021/03/29 04:03:41;;;;;;;6.95;4.22;;;4.50;84.30;;;;;;6275752;28;20053;-77
2021/03/29 04:06:42;;;;;;;7.53;3.65;;;4.50;84.60;;;;;;6275995;28;20049;-77
2021/03/29 04:09:50;;;;;;;7.32;3.72;;;4.30;84.80;;;;;;6273888;28;20045;-77
2021/03/29 04:12:53;;;;;;;;;;;4.30;85.30;;;;;;6274109;28;20069;-77
2021/03/29 04:15:56;;;;;;;5.18;4.15;;;4.20;85.40;;;;;;6273515;28;19920;-78
2021/03/29 04:18:58;;;;;;;5.35;3.92;;;4.10;85.70;;;;;;6254758;28;20140;-77
2021/03/29 04:21:59;;;;;;;9.45;4.35;;;4.00;86.10;;;;;;6247409;28;20123;-77
2021/03/29 04:25:01;;;;;;;9.70;4.10;;;3.90;86.60;;;;;;6247244;28;20506;-77
2021/03/29 04:28:04;;;;;;;6.88;4.65;;;3.90;87.30;;;;;;6246544;28;20129;-77
2021/03/29 04:31:06;;;;;;;8.77;4.07;;;3.80;87.10;;;;;;6247489;28;20053;-77
2021/03/29 04:34:08;;;;;;;9.32;3.90;;;3.80;87.40;;;;;;6247209;28;20126;-77
2021/03/29 04:37:09;;;;;;;5.70;4.13;;;3.70;87.70;;;;;;6246682;28;20129;-78
2021/03/29 04:40:11;;;;;;;8.65;5.07;;;3.70;87.90;;;;;;6246349;28;20096;-77
2021/03/29 04:43:13;;;;;;;11.88;4.22;;;3.60;88.00;;;;;;6246705;28;20152;-77
2021/03/29 04:46:15;;;;;;;7.00;4.18;;;3.50;88.00;;;;;;6247624;28;20510;-77
2021/03/29 04:49:16;;;;;;;5.25;3.85;;;3.60;88.40;;;;;;6246525;28;20077;-77
2021/03/29 04:52:18;;;;;;;9.70;4.13;;;3.50;88.60;;;;;;6246389;28;20581;-77
2021/03/29 04:55:20;;;;;;;10.13;4.80;;;3.40;88.80;;;;;;6246755;28;20199;-78
2021/03/29 04:58:21;;;;;;;9.93;4.30;;;3.40;89.20;;;;;;6246649;28;20569;-77
2021/03/29 05:01:24;;;;;;;7.38;5.38;;;3.40;89.50;;;;;;6246502;28;20472;-77
2021/03/29 05:04:25;;;;;;;3.63;3.17;;;3.40;89.10;;;;;;6248521;28;20080;-78
2021/03/29 05:07:27;;;;;;;6.63;5.13;;;3.40;89.10;;;;;;6251290;28;20052;-77
2021/03/29 05:10:28;;;;;;;7.20;5.00;;;3.40;89.20;;;;;;6251467;28;20136;-77
2021/03/29 05:13:29;;;;;;;14.17;4.10;;;3.40;89.20;;;;;;6251070;28;20049;-77
2021/03/29 05:16:31;;;;;;;6.47;3.50;;;3.40;89.60;;;;;;6250944;28;20132;-77
2021/03/29 05:19:33;;;;;;;9.20;5.03;;;3.40;89.60;;;;;;6271930;22;20048;-77
2021/03/29 05:22:34;;;;;;;5.83;3.30;;;3.30;89.90;;;;;;6252626;28;20053;-77
2021/03/29 05:25:35;;;;;;;6.18;3.30;;;3.20;90.30;;;;;;6250982;28;20081;-77
2021/03/29 05:28:37;;;;;;;4.00;3.30;;;3.20;90.30;;;;;;6250243;28;20128;-77
2021/03/29 05:31:40;;;;;;;4.23;3.80;;;3.20;90.40;;;;;;6250593;28;20124;-77
2021/03/29 05:34:42;;;;;;;10.07;4.35;;;3.20;90.40;;;;;;6250962;28;20150;-78
2021/03/29 05:37:44;;;;;;;5.83;3.63;;;3.40;90.40;;;;;;6249828;28;20125;-77
2021/03/29 05:40:45;;;;;;;9.00;3.47;;;3.40;90.20;;;;;;6249701;28;20064;-77
2021/03/29 05:43:47;;;;;;;9.07;3.20;;;3.40;90.20;;;;;;6249917;28;20585;-77
2021/03/29 05:46:49;;;;;;;10.60;4.28;;;3.40;90.20;;;;;;6249908;28;20135;-77
2021/03/29 05:49:50;;;;;;;4.68;3.05;;;3.40;90.20;;;;;;6249613;28;20056;-77
2021/03/29 05:52:52;;;;;;;8.63;3.80;;;3.40;90.30;;;;;;6250145;28;20083;-77
2021/03/29 05:55:53;;;;;;;5.03;3.70;;;3.50;90.40;;;;;;6250383;28;20518;-78
2021/03/29 05:59:07;;;;;;;5.22;3.75;;;3.50;90.30;;;;;;6251161;28;20045;-77
2021/03/29 06:02:10;;;;;;;4.15;3.70;;;3.60;90.40;;;;;;6250531;28;20080;-77
2021/03/29 06:05:12;;;;;;;7.07;3.72;;;3.80;90.30;;;;;;6241325;28;20400;-77
2021/03/29 06:08:13;;;;;;;9.50;3.33;;;3.90;90.20;;;;;;6245708;28;20499;-77
2021/03/29 06:11:25;;;;;;;5.22;3.85;;;3.90;90.00;;;;;;6245624;28;20128;-77
2021/03/29 06:14:29;;;;;;;3.88;3.13;;;4.10;90.00;;;;;;6249597;28;20045;-77
2021/03/29 06:17:31;;;;;;;9.15;3.80;;;4.20;89.60;;;;;;6249602;28;20450;-78
2021/03/29 06:20:32;;;;;;;15.00;4.18;;;4.30;89.40;;;;;;6249681;28;20080;-77
2021/03/29 06:23:36;;;;;;;6.25;3.47;;;4.40;89.20;;;;;;6251098;28;20053;-76
2021/03/29 06:26:37;;;;;;;16.00;6.72;;;4.40;89.10;;;;;;6250851;28;20087;-77
2021/03/29 06:29:38;;;;;;;10.43;6.50;;;4.30;89.20;;;;;;6249629;28;20050;-77
2021/03/29 06:32:56;;;;;;;9.48;5.47;;;4.40;89.60;;;;;;6249396;28;20045;-76
2021/03/29 06:35:57;;;;;;;8.53;6.13;;;4.40;89.60;;;;;;6248995;28;20515;-77
2021/03/29 06:39:15;;;;;;;4.43;3.28;;;4.50;89.60;;;;;;6248616;28;20076;-77
2021/03/29 06:42:17;;;;;;;5.35;3.75;;;4.50;89.80;;;;;;6271785;28;20482;-76
2021/03/29 06:45:19;;;;;;;11.10;4.05;;;4.70;89.80;;;;;;6253806;28;20136;-76
2021/03/29 06:48:27;;;;;;;4.93;3.88;;;4.90;89.40;;;;;;6247418;28;20515;-77
2021/03/29 06:51:31;;;;;;;4.53;3.05;;;5.10;89.20;;;;;;6248037;28;20096;-77
2021/03/29 06:54:32;;;;;;;6.05;3.90;;;5.40;88.40;;;;;;6248909;28;20068;-77
2021/03/29 06:57:33;;;;;;;5.13;3.40;;;5.80;87.80;;;;;;6249141;28;20072;-77
2021/03/29 07:00:36;;;;;;;6.25;3.50;;;6.30;87.20;;;;;;6247978;28;20049;-77
2021/03/29 07:03:38;;;;;;;5.53;3.22;;;6.80;86.20;;;;;;6247260;28;20128;-77
2021/03/29 07:06:42;;;;;;;11.15;4.13;;;7.20;85.10;;;;;;6248899;28;20084;-77
2021/03/29 07:09:43;;;;;;;8.70;3.90;;;7.70;83.80;;;;;;6250812;28;20128;-78
2021/03/29 07:12:46;;;;;;;8.25;3.88;;;8.10;83.00;;;;;;6248026;28;20045;-78
2021/03/29 07:15:47;;;;;;;7.47;3.83;;;8.60;81.70;;;;;;6247909;28;20539;-78
2021/03/29 07:18:50;;;;;;;9.60;3.15;;;9.10;78.50;;;;;;6248816;28;20132;-77
2021/03/29 07:21:52;;;;;;;5.85;2.53;;;9.50;75.80;;;;;;6247630;28;20042;-77
2021/03/29 07:25:00;;;;;;;4.97;3.15;;;10.00;73.30;;;;;;6248400;28;20548;-78
2021/03/29 07:28:08;;;;;;;5.72;4.35;;;10.40;70.40;;;;;;6247443;28;20072;-78
2021/03/29 07:31:09;;;;;;;3.88;2.53;;;10.80;68.60;;;;;;6247800;28;20253;-78
2021/03/29 07:34:12;;;;;;;6.07;2.88;;;11.20;67.40;;;;;;6248721;28;20096;-78
2021/03/29 07:37:36;;;;;;;4.97;2.67;;;11.50;65.00;;;;;;6247716;28;20125;-78
2021/03/29 07:40:40;;;;;;;5.72;4.22;;;11.80;65.40;;;;;;6247304;28;20050;-78
2021/03/29 07:44:12;;;;;;;4.65;2.65;;;12.10;63.50;;;;;;6248144;28;20049;-80
2021/03/29 07:47:41;;;;;;;8.57;2.85;;;12.40;63.30;;;;;;6247335;28;20531;-78
2021/03/29 07:50:49;;;;;;;5.00;3.53;;;12.80;62.10;;;;;;6252075;28;20077;-78
2021/03/29 07:53:52;;;;;;;5.68;3.83;;;13.10;60.20;;;;;;6248114;28;20072;-78
2021/03/29 07:56:53;;;;;;;6.32;3.30;;;13.30;59.30;;;;;;6249431;28;20095;-78
2021/03/29 07:59:55;;;;;;;5.45;4.03;;;13.60;58.50;;;;;;6248535;28;20467;-77
2021/03/29 08:02:58;;;;;;;3.80;2.83;;;13.90;57.50;;;;;;6249366;28;20138;-77
2021/03/29 08:06:01;;;;;;;5.43;3.17;;;14.20;57.20;;;;;;6247095;28;20136;-77
2021/03/29 08:09:03;;;;;;;4.32;2.90;;;14.50;55.50;;;;;;6247381;28;20056;-77
2021/03/29 08:12:06;;;;;;;7.03;3.30;;;14.60;55.20;;;;;;6247314;28;20129;-78
2021/03/29 08:15:09;;;;;;;4.32;3.40;;;14.90;54.40;;;;;;6246773;28;20053;-78
2021/03/29 08:18:10;;;;;;;7.90;2.53;;;15.20;53.00;;;;;;6247487;28;20224;-77
2021/03/29 08:21:41;;;;;;;6.45;3.15;;;15.50;52.20;;;;;;6246599;28;20047;-77
2021/03/29 08:24:45;;;;;;;6.93;2.83;;;15.80;51.20;;;;;;6244515;28;20049;-77
2021/03/29 08:27:55;;;;;;;4.63;2.63;;;16.10;50.50;;;;;;6246379;28;20045;-77
2021/03/29 08:30:56;;;;;;;5.82;2.40;;;16.30;50.00;;;;;;6246272;28;20422;-77
2021/03/29 08:33:58;;;;;;;5.10;2.20;;;16.70;48.80;;;;;;6246071;28;20076;-77
2021/03/29 08:37:01;;;;;;;3.83;2.42;;;16.90;48.40;;;;;;6246072;28;20049;-77
2021/03/29 08:40:10;;;;;;;3.88;2.30;;;17.10;46.40;;;;;;6251166;28;20501;-77
2021/03/29 08:43:12;;;;;;;4.28;3.38;;;17.30;46.10;;;;;;6251168;28;20529;-77
2021/03/29 08:46:13;;;;;;;6.68;2.90;;;17.40;45.30;;;;;;6251605;28;20145;-77
2021/03/29 08:49:15;;;;;;;4.30;2.38;;;17.50;43.80;;;;;;6250493;28;20045;-78
2021/03/29 08:52:16;;;;;;;5.75;1.95;;;17.40;44.50;;;;;;6250895;28;20104;-77
2021/03/29 08:55:21;;;;;;;6.22;2.30;;;17.60;43.90;;;;;;6250763;28;20491;-77
2021/03/29 08:58:22;;;;;;;6.75;2.30;;;17.70;42.60;;;;;;6251251;28;20088;-77
2021/03/29 09:01:28;;;;;;;8.63;2.67;;;17.70;43.30;;;;;;6250712;28;20053;-77
2021/03/29 09:04:29;;;;;;;3.20;1.98;;;17.90;43.70;;;;;;6250766;28;20410;-77
2021/03/29 09:07:32;;;;;;;7.07;1.70;;;18.20;42.00;;;;;;6251030;28;20133;-78
2021/03/29 09:10:35;;;;;;;4.95;2.40;;;18.40;42.60;;;;;;6251376;28;20058;-77
2021/03/29 09:13:36;;;;;;;4.82;2.42;;;18.60;41.20;;;;;;6250937;28;20056;-78
2021/03/29 09:16:39;;;;;;;5.20;2.45;;;18.90;40.60;;;;;;6250646;28;20614;-77
2021/03/29 09:19:40;;;;;;;5.18;3.10;;;19.10;40.60;;;;;;6250524;28;20041;-77
2021/03/29 09:22:42;;;;;;;3.13;1.90;;;19.40;39.80;;;;;;6251272;28;20049;-77
2021/03/29 09:25:46;;;;;;;6.47;3.65;;;19.40;38.90;;;;;;6250925;28;20046;-78
2021/03/29 09:28:49;;;;;;;6.20;2.40;;;19.40;38.40;;;;;;6250726;28;20041;-77
2021/03/29 09:31:51;;;;;;;5.63;1.90;;;19.40;38.20;;;;;;6250486;28;20042;-77
2021/03/29 09:34:53;;;;;;;4.30;2.00;;;19.60;37.90;;;;;;6250556;28;20217;-77
2021/03/29 09:37:55;;;;;;;3.58;2.03;;;19.70;36.70;;;;;;6250081;28;20072;-77
2021/03/29 09:40:57;;;;;;;5.18;1.90;;;19.70;37.20;;;;;;6249498;28;20049;-77
2021/03/29 09:44:05;;;;;;;5.53;2.22;;;19.70;38.10;;;;;;6250029;28;20103;-77
2021/03/29 09:47:06;;;;;;;;;;;19.80;37.00;;;;;;6250238;28;20172;-77
2021/03/29 09:50:10;;;;;;;3.78;2.08;;;19.90;37.80;;;;;;6249546;28;19978;-77
2021/03/29 09:53:14;;;;;;;9.55;2.17;;;20.10;37.80;;;;;;6249958;28;20052;-77
2021/03/29 09:56:28;;;;;;;6.22;3.55;;;20.20;37.20;;;;;;6249985;28;20072;-77
2021/03/29 09:59:30;;;;;;;6.72;2.55;;;20.40;37.90;;;;;;6250177;28;20065;-77
2021/03/29 10:02:33;;;;;;;4.20;1.73;;;20.60;37.90;;;;;;6250129;28;20140;-77
2021/03/29 10:05:35;;;;;;;5.25;2.10;;;20.90;37.60;;;;;;6249567;28;20514;-78
2021/03/29 10:08:36;;;;;;;4.28;1.60;;;21.20;36.60;;;;;;6249263;28;20049;-78
2021/03/29 10:11:45;;;;;;;4.05;1.65;;;21.30;34.90;;;;;;6248712;28;20069;-78
2021/03/29 10:14:47;;;;;;;5.72;1.73;;;21.40;35.20;;;;;;6250374;28;20046;-77
2021/03/29 10:18:09;;;;;;;4.32;1.52;;;21.50;34.70;;;;;;6249466;28;20116;-77
2021/03/29 10:21:12;;;;;;;4.43;1.95;;;21.60;34.30;;;;;;6249372;28;20050;-78
2021/03/29 10:24:14;;;;;;;5.90;1.67;;;21.60;34.70;;;;;;6249460;28;20116;-77
2021/03/29 10:27:16;;;;;;;3.33;1.40;;;21.70;34.00;;;;;;6249094;28;20088;-77
2021/03/29 10:30:26;;;;;;;5.35;1.48;;;21.80;33.90;;;;;;6249136;28;20096;-78
2021/03/29 10:33:27;;;;;;;6.30;1.65;;;22.00;33.60;;;;;;6248988;28;20239;-77
2021/03/29 10:36:30;;;;;;;3.63;1.35;;;22.00;33.00;;;;;;6249085;28;20171;-77
2021/03/29 10:39:31;;;;;;;6.70;1.70;;;22.00;33.80;;;;;;6248418;28;20045;-78
2021/03/29 10:42:35;;;;;;;3.50;1.40;;;22.10;33.60;;;;;;6249589;28;20132;-77
2021/03/29 10:45:37;;;;;;;5.07;2.80;;;22.20;33.40;;;;;;6248484;28;20502;-77
2021/03/29 10:48:38;;;;;;;3.15;1.73;;;22.20;33.20;;;;;;6248369;28;20045;-77
2021/03/29 10:51:40;;;;;;;2.65;1.00;;;22.30;32.40;;;;;;6248593;28;20049;-78
2021/03/29 10:54:41;;;;;;;3.15;0.90;;;22.30;32.00;;;;;;6248579;28;20133;-77
2021/03/29 10:57:43;;;;;;;9.15;1.55;;;22.30;31.40;;;;;;6248600;28;20410;-77
2021/03/29 11:00:45;;;;;;;4.38;2.55;;;22.10;32.10;;;;;;6248110;28;20118;-77
2021/03/29 11:03:46;;;;;;;1.00;0.90;;;22.00;31.80;;;;;;6248094;28;20116;-77
2021/03/29 11:06:47;;;;;;;3.30;1.17;;;22.00;32.40;;;;;;6248401;28;20532;-77
2021/03/29 11:09:49;;;;;;;7.28;1.50;;;22.10;31.90;;;;;;6247412;28;20124;-77
2021/03/29 11:12:51;;;;;;;3.75;1.42;;;22.20;31.70;;;;;;6248193;28;20128;-77
2021/03/29 11:15:54;;;;;;;2.47;0.95;;;22.30;32.20;;;;;;6248019;28;20065;-77
2021/03/29 11:18:56;;;;;;;6.53;1.35;;;22.40;32.20;;;;;;6247701;28;20487;-77
2021/03/29 11:21:57;;;;;;;4.80;1.70;;;22.50;31.00;;;;;;6289979;22;20049;-76
2021/03/29 11:24:58;;;;;;;4.95;2.20;;;22.50;32.20;;;;;;6274824;28;20060;-77
2021/03/29 11:28:01;;;;;;;1.40;0.90;;;22.60;32.10;;;;;;6275878;28;20047;-76
2021/03/29 11:31:02;;;;;;;2.33;1.63;;;22.80;31.30;;;;;;6272799;28;20132;-76
2021/03/29 11:34:04;;;;;;;5.22;1.60;;;22.80;31.40;;;;;;6273123;28;20112;-77
2021/03/29 11:37:05;;;;;;;3.92;1.40;;;22.90;31.10;;;;;;6272116;28;20132;-78
2021/03/29 11:40:10;;;;;;;3.40;1.83;;;22.90;31.10;;;;;;6271797;28;20140;-77
2021/03/29 11:43:13;;;;;;;4.07;2.20;;;23.00;30.70;;;;;;6271855;28;20139;-77
2021/03/29 11:46:15;;;;;;;4.78;1.55;;;23.00;30.30;;;;;;6272290;28;20057;-77
2021/03/29 11:49:16;;;;;;;6.82;1.48;;;23.30;31.30;;;;;;6290322;28;20135;-77
2021/03/29 11:52:18;;;;;;;4.05;2.53;;;23.30;30.00;;;;;;6297052;28;20075;-77
2021/03/29 11:55:19;;;;;;;9.45;3.33;;;23.40;30.00;;;;;;6296415;28;20102;-77
2021/03/29 11:58:21;;;;;;;3.78;2.88;;;23.40;30.10;;;;;;6296762;28;20097;-78
2021/03/29 12:01:35;;;;;;;5.75;2.53;;;23.60;30.30;;;;;;6295816;28;20068;-78
2021/03/29 12:04:40;;;;;;;2.60;1.90;;;23.60;29.50;;;;;;6295835;28;20457;-77
2021/03/29 12:07:51;;;;;;;4.07;1.42;;;23.60;28.90;;;;;;6296855;28;20124;-78
2021/03/29 12:14:14;;;;;;;11.85;8.80;;;23.50;28.10;;;;;;6296773;28;20060;-77
2021/03/29 12:17:17;;;;;;;3.58;1.58;;;23.50;28.90;;;;;;6298256;28;20463;-79
2021/03/29 12:20:18;;;;;;;7.07;5.43;;;23.50;28.70;;;;;;6297194;28;20041;-77
2021/03/29 12:23:22;;;;;;;3.70;2.85;;;23.50;28.90;;;;;;6298735;28;20522;-77
2021/03/29 12:26:24;;;;;;;6.85;2.67;;;23.60;27.80;;;;;;6298789;28;20055;-78
2021/03/29 12:29:36;;;;;;;5.80;1.95;;;23.70;28.90;;;;;;6296943;28;20585;-78
2021/03/29 12:32:38;;;;;;;11.68;8.20;;;23.80;27.20;;;;;;6298334;28;20425;-78
2021/03/29 12:35:40;;;;;;;8.27;3.78;;;23.70;27.40;;;;;;6300414;28;20517;-77
2021/03/29 12:38:46;;;;;;;3.97;2.10;;;23.80;27.20;;;;;;6305124;28;20052;-79
2021/03/29 12:41:55;;;;;;;7.18;4.00;;;23.80;28.20;;;;;;6310884;28;20120;-77
2021/03/29 12:44:57;;;;;;;4.40;2.22;;;23.90;27.40;;;;;;6309345;28;20541;-77
2021/03/29 12:48:00;;;;;;;8.85;3.03;;;23.90;27.50;;;;;;6320237;28;20048;-78
2021/03/29 12:51:02;;;;;;;4.28;1.65;;;24.10;27.10;;;;;;6313224;28;20072;-77
2021/03/29 12:54:09;;;;;;;2.63;1.23;;;24.10;26.90;;;;;;6309722;28;20056;-79
2021/03/29 12:57:11;;;;;;;4.63;1.40;;;24.10;27.50;;;;;;6302033;28;20052;-79
2021/03/29 13:00:19;;;;;;;3.20;1.42;;;24.10;27.00;;;;;;6297055;28;20818;-78
2021/03/29 13:03:21;;;;;;;2.92;1.60;;;24.10;26.70;;;;;;6297485;28;20044;-78
2021/03/29 13:06:28;;;;;;;5.78;2.38;;;24.10;26.20;;;;;;6296260;28;20048;-78
2021/03/29 13:09:35;;;;;;;3.38;1.55;;;24.10;25.90;;;;;;6295470;28;20529;-77
2021/03/29 13:12:37;;;;;;;7.17;2.17;;;23.90;26.80;;;;;;6298592;28;20067;-79
2021/03/29 13:15:39;;;;;;;5.72;1.45;;;23.80;27.20;;;;;;6321235;28;20055;-78
2021/03/29 13:18:41;;;;;;;2.03;1.42;;;23.80;27.30;;;;;;6320561;28;20507;-77
2021/03/29 13:21:43;;;;;;;2.92;1.48;;;23.90;26.90;;;;;;6320273;28;20044;-79
2021/03/29 13:24:44;;;;;;;4.47;1.90;;;24.10;26.30;;;;;;6321192;28;20118;-78
2021/03/29 13:27:46;;;;;;;2.60;1.33;;;24.10;26.90;;;;;;6324864;28;20674;-78
2021/03/29 13:30:48;;;;;;;2.35;1.15;;;24.10;26.60;;;;;;6325147;28;20076;-78
2021/03/29 13:33:49;;;;;;;6.43;1.58;;;24.10;26.50;;;;;;6325047;28;20044;-78
2021/03/29 13:36:51;;;;;;;3.72;1.50;;;24.00;26.00;;;;;;6324977;28;20047;-77
2021/03/29 13:39:53;;;;;;;2.35;1.48;;;24.10;25.90;;;;;;6325056;28;20068;-79
2021/03/29 13:42:56;;;;;;;4.50;1.40;;;24.20;26.40;;;;;;6325680;28;20105;-78
2021/03/29 13:45:58;;;;;;;1.70;1.20;;;24.20;26.20;;;;;;6324915;28;20097;-77
2021/03/29 13:49:01;;;;;;;3.13;1.30;;;24.20;26.00;;;;;;6324538;28;20127;-78
2021/03/29 13:52:04;;;;;;;5.40;2.25;;;24.30;26.00;;;;;;6323934;28;20755;-78
2021/03/29 13:55:08;;;;;;;5.90;1.77;;;24.30;26.30;;;;;;6325198;28;20143;-78
2021/03/29 13:58:09;;;;;;;3.90;1.20;;;24.30;26.10;;;;;;6324603;28;20044;-77
2021/03/29 14:01:13;;;;;;;7.78;1.90;;;24.30;25.80;;;;;;6324838;28;20051;-78
2021/03/29 14:04:15;;;;;;;2.40;1.70;;;24.40;25.90;;;;;;6324552;28;20622;-78
2021/03/29 14:07:18;;;;;;;2.90;1.63;;;24.30;25.80;;;;;;6325290;28;20056;-78
2021/03/29 14:10:19;;;;;;;3.67;1.20;;;24.20;26.10;;;;;;6326203;28;20053;-77
2021/03/29 14:13:21;;;;;;;4.30;1.42;;;24.10;26.00;;;;;;6314689;28;20124;-78
2021/03/29 14:16:23;;;;;;;2.42;1.30;;;24.00;26.90;;;;;;6299080;28;20069;-78
2021/03/29 14:19:24;;;;;;;8.35;2.40;;;24.10;27.00;;;;;;6298190;28;20079;-77
2021/03/29 14:22:27;;;;;;;3.97;1.63;;;24.20;26.90;;;;;;6299104;28;20498;-77
2021/03/29 14:25:29;;;;;;;2.83;1.00;;;24.30;27.30;;;;;;6298536;28;20523;-77
2021/03/29 14:28:30;;;;;;;3.90;1.85;;;24.30;26.50;;;;;;6298352;28;20045;-76
2021/03/29 14:31:33;;;;;;;5.53;2.15;;;24.10;25.90;;;;;;6297800;28;20072;-77
2021/03/29 14:34:36;;;;;;;3.90;1.23;;;23.90;26.30;;;;;;6298568;28;20056;-77
2021/03/29 14:37:55;;;;;;;8.48;1.27;;;23.80;26.90;;;;;;6297560;28;20094;-77
2021/03/29 14:41:18;;;;;;;3.92;1.35;;;23.90;26.80;;;;;;6297805;28;20055;-77
2021/03/29 14:44:29;;;;;;;4.68;2.10;;;24.20;26.50;;;;;;6297885;28;20395;-77
2021/03/29 14:47:31;;;;;;;4.05;1.23;;;24.10;26.30;;;;;;6298828;28;20045;-78
2021/03/29 14:50:32;;;;;;;6.40;1.55;;;24.10;26.30;;;;;;6301487;28;20079;-78
2021/03/29 14:53:34;;;;;;;1.70;1.60;;;24.10;26.40;;;;;;6299540;28;20072;-77
2021/03/29 14:56:35;;;;;;;2.33;1.10;;;24.40;26.10;;;;;;6297869;28;20075;-78
2021/03/29 14:59:37;;;;;;;5.43;1.63;;;24.40;26.00;;;;;;6298592;28;20074;-78
2021/03/29 15:02:40;;;;;;;4.68;2.15;;;24.50;26.00;;;;;;6298183;28;20127;-78
2021/03/29 15:05:46;;;;;;;3.05;1.27;;;24.60;26.00;;;;;;6297831;28;20079;-76
2021/03/29 15:08:47;;;;;;;4.68;1.10;;;24.50;26.20;;;;;;6297530;28;20052;-77
2021/03/29 15:11:49;;;;;;;5.60;1.45;;;24.40;26.40;;;;;;6297355;28;20079;-79
2021/03/29 15:14:50;;;;;;;3.90;2.25;;;24.20;26.40;;;;;;6318971;28;20075;-77
2021/03/29 15:17:52;;;;;;;2.10;1.33;;;24.00;27.10;;;;;;6322408;28;20052;-79
2021/03/29 15:20:53;;;;;;;3.28;1.88;;;23.70;27.00;;;;;;6322813;28;20071;-79
2021/03/29 15:23:55;;;;;;;4.13;1.42;;;23.40;27.10;;;;;;6325642;28;20247;-78
2021/03/29 15:26:56;;;;;;;3.22;1.58;;;23.20;27.60;;;;;;6322673;28;20059;-78
2021/03/29 15:29:57;;;;;;;2.55;1.40;;;23.00;27.00;;;;;;6322291;28;20086;-79
2021/03/29 15:33:00;;;;;;;3.35;1.33;;;22.80;27.10;;;;;;6324729;28;20074;-77
2021/03/29 15:36:01;;;;;;;2.47;1.95;;;22.40;27.50;;;;;;6323282;28;20150;-77
2021/03/29 15:39:04;;;;;;;2.97;1.88;;;22.20;27.70;;;;;;6337238;28;20055;-78
2021/03/29 15:42:06;;;;;;;2.15;1.40;;;22.10;28.00;;;;;;6348495;28;20055;-79
2021/03/29 15:45:08;;;;;;;3.47;1.83;;;21.90;28.00;;;;;;6340092;28;20047;-79
2021/03/29 15:48:11;;;;;;;2.17;1.35;;;21.70;28.00;;;;;;6328633;28;20574;-79
2021/03/29 15:51:12;;;;;;;2.75;1.80;;;21.50;28.10;;;;;;6326748;28;20129;-78
2021/03/29 15:54:14;;;;;;;7.65;1.77;;;21.40;28.30;;;;;;6327232;28;20050;-78
2021/03/29 15:57:17;;;;;;;4.18;1.88;;;21.30;29.00;;;;;;6325867;28;20128;-77
2021/03/29 16:00:21;;;;;;;3.13;1.33;;;21.30;28.90;;;;;;6284954;28;20418;-79
2021/03/29 16:03:25;;;;;;;3.30;1.92;;;21.20;28.90;;;;;;6273866;28;20049;-78